Terminal Aerodrome Forecast
Issued by NWS Blacksburg, VA

Current Version | Previous Version | Graphics & Text | Print | Product List | Glossary On
Versions: 1 2 3 4 5 6 7 8 9 10 11 12 13 14 15 16 17 18
000
FTUS41 KRNK 211120
TAFBLF
TAF
KBLF 211120Z 2112/2212 13005KT P6SM SCT250
     FM211600 26007KT P6SM SCT150 BKN250
     FM221100 25006KT P6SM -RA SCT050 OVC080=

USA.gov is the U.S. government's official web portal to all federal, state and local government web resources and services.